sensor_id;sensor_type;location;lat;lon;timestamp;P1;durP1;ratioP1;P2;durP2;ratioP2
7693;SDS011;3889;48.162;11.510;2022-09-09T00:00:37;3.08;;;1.50;;
7693;SDS011;3889;48.162;11.510;2022-09-09T00:03:08;3.20;;;1.70;;
7693;SDS011;3889;48.162;11.510;2022-09-09T00:05:43;2.33;;;1.65;;
7693;SDS011;3889;48.162;11.510;2022-09-09T00:08:18;3.40;;;1.77;;
7693;SDS011;3889;48.162;11.510;2022-09-09T00:10:49;2.88;;;1.40;;
7693;SDS011;3889;48.162;11.510;2022-09-09T00:13:24;3.05;;;1.60;;
7693;SDS011;3889;48.162;11.510;2022-09-09T00:16:03;2.55;;;1.70;;
7693;SDS011;3889;48.162;11.510;2022-09-09T00:18:44;3.53;;;1.80;;
7693;SDS011;3889;48.162;11.510;2022-09-09T00:21:19;2.92;;;1.63;;
7693;SDS011;3889;48.162;11.510;2022-09-09T00:23:53;4.15;;;1.80;;
7693;SDS011;3889;48.162;11.510;2022-09-09T00:26:22;2.95;;;2.00;;
7693;SDS011;3889;48.162;11.510;2022-09-09T00:29:00;3.22;;;1.85;;
7693;SDS011;3889;48.162;11.510;2022-09-09T00:31:36;4.07;;;1.85;;
7693;SDS011;3889;48.162;11.510;2022-09-09T00:34:05;3.30;;;1.90;;
7693;SDS011;3889;48.162;11.510;2022-09-09T00:36:39;2.25;;;1.60;;
7693;SDS011;3889;48.162;11.510;2022-09-09T00:39:08;2.00;;;1.83;;
7693;SDS011;3889;48.162;11.510;2022-09-09T00:41:44;3.42;;;1.70;;
7693;SDS011;3889;48.162;11.510;2022-09-09T00:44:25;2.50;;;1.77;;
7693;SDS011;3889;48.162;11.510;2022-09-09T00:49:59;2.28;;;1.73;;
7693;SDS011;3889;48.162;11.510;2022-09-09T00:52:32;2.60;;;1.90;;
7693;SDS011;3889;48.162;11.510;2022-09-09T00:55:08;3.58;;;1.65;;
7693;SDS011;3889;48.162;11.510;2022-09-09T00:57:44;4.30;;;1.77;;
7693;SDS011;3889;48.162;11.510;2022-09-09T01:00:21;3.28;;;1.80;;
7693;SDS011;3889;48.162;11.510;2022-09-09T01:02:52;2.87;;;1.77;;
7693;SDS011;3889;48.162;11.510;2022-09-09T01:05:30;3.45;;;1.73;;
7693;SDS011;3889;48.162;11.510;2022-09-09T01:08:03;2.50;;;1.65;;
7693;SDS011;3889;48.162;11.510;2022-09-09T01:10:39;2.17;;;1.60;;
7693;SDS011;3889;48.162;11.510;2022-09-09T01:13:15;2.78;;;1.80;;
7693;SDS011;3889;48.162;11.510;2022-09-09T01:15:50;2.22;;;1.70;;
7693;SDS011;3889;48.162;11.510;2022-09-09T01:18:23;2.70;;;1.80;;
7693;SDS011;3889;48.162;11.510;2022-09-09T01:20:56;3.25;;;1.70;;
7693;SDS011;3889;48.162;11.510;2022-09-09T01:23:33;2.85;;;1.70;;
7693;SDS011;3889;48.162;11.510;2022-09-09T01:26:15;2.08;;;1.50;;
7693;SDS011;3889;48.162;11.510;2022-09-09T01:28:55;2.28;;;1.70;;
7693;SDS011;3889;48.162;11.510;2022-09-09T01:31:26;1.98;;;1.77;;
7693;SDS011;3889;48.162;11.510;2022-09-09T01:33:56;3.00;;;1.70;;
7693;SDS011;3889;48.162;11.510;2022-09-09T01:36:26;2.67;;;1.85;;
7693;SDS011;3889;48.162;11.510;2022-09-09T01:39:05;2.73;;;1.93;;
7693;SDS011;3889;48.162;11.510;2022-09-09T01:41:34;2.30;;;1.87;;
7693;SDS011;3889;48.162;11.510;2022-09-09T01:44:02;2.67;;;1.83;;
7693;SDS011;3889;48.162;11.510;2022-09-09T01:46:30;3.42;;;1.77;;
7693;SDS011;3889;48.162;11.510;2022-09-09T01:48:58;4.10;;;2.10;;
7693;SDS011;3889;48.162;11.510;2022-09-09T01:51:27;3.38;;;1.90;;
7693;SDS011;3889;48.162;11.510;2022-09-09T01:53:56;2.40;;;1.80;;
7693;SDS011;3889;48.162;11.510;2022-09-09T01:56:28;2.15;;;1.92;;
7693;SDS011;3889;48.162;11.510;2022-09-09T01:59:07;2.72;;;2.10;;
7693;SDS011;3889;48.162;11.510;2022-09-09T02:01:51;2.92;;;1.98;;
7693;SDS011;3889;48.162;11.510;2022-09-09T02:04:36;2.83;;;2.00;;
7693;SDS011;3889;48.162;11.510;2022-09-09T02:07:08;3.05;;;2.03;;
7693;SDS011;3889;48.162;11.510;2022-09-09T02:09:43;2.00;;;1.70;;
7693;SDS011;3889;48.162;11.510;2022-09-09T02:12:18;4.13;;;1.80;;
7693;SDS011;3889;48.162;11.510;2022-09-09T02:14:52;2.30;;;1.80;;
7693;SDS011;3889;48.162;11.510;2022-09-09T02:17:26;2.30;;;1.90;;
7693;SDS011;3889;48.162;11.510;2022-09-09T02:19:59;2.60;;;1.90;;
7693;SDS011;3889;48.162;11.510;2022-09-09T02:22:32;2.30;;;1.60;;
7693;SDS011;3889;48.162;11.510;2022-09-09T02:25:02;3.38;;;1.80;;
7693;SDS011;3889;48.162;11.510;2022-09-09T02:27:32;1.95;;;1.75;;
7693;SDS011;3889;48.162;11.510;2022-09-09T02:30:02;2.95;;;1.92;;
7693;SDS011;3889;48.162;11.510;2022-09-09T02:32:32;3.17;;;2.03;;
7693;SDS011;3889;48.162;11.510;2022-09-09T02:35:03;2.40;;;1.60;;
7693;SDS011;3889;48.162;11.510;2022-09-09T02:37:36;2.90;;;1.80;;
7693;SDS011;3889;48.162;11.510;2022-09-09T02:40:06;3.15;;;1.75;;
7693;SDS011;3889;48.162;11.510;2022-09-09T02:42:38;2.15;;;1.73;;
7693;SDS011;3889;48.162;11.510;2022-09-09T02:45:09;3.75;;;1.77;;
7693;SDS011;3889;48.162;11.510;2022-09-09T02:47:38;3.03;;;1.70;;
7693;SDS011;3889;48.162;11.510;2022-09-09T02:50:15;2.30;;;2.00;;
7693;SDS011;3889;48.162;11.510;2022-09-09T02:52:49;3.47;;;1.80;;
7693;SDS011;3889;48.162;11.510;2022-09-09T02:55:29;1.90;;;1.80;;
7693;SDS011;3889;48.162;11.510;2022-09-09T02:58:05;2.25;;;1.70;;
7693;SDS011;3889;48.162;11.510;2022-09-09T03:00:37;3.47;;;1.63;;
7693;SDS011;3889;48.162;11.510;2022-09-09T03:03:06;2.13;;;1.42;;
7693;SDS011;3889;48.162;11.510;2022-09-09T03:05:35;1.83;;;1.40;;
7693;SDS011;3889;48.162;11.510;2022-09-09T03:08:04;3.20;;;2.03;;
7693;SDS011;3889;48.162;11.510;2022-09-09T03:10:32;2.75;;;1.58;;
7693;SDS011;3889;48.162;11.510;2022-09-09T03:13:01;2.72;;;1.90;;
7693;SDS011;3889;48.162;11.510;2022-09-09T03:15:30;2.27;;;1.70;;
7693;SDS011;3889;48.162;11.510;2022-09-09T03:17:59;2.22;;;1.70;;
7693;SDS011;3889;48.162;11.510;2022-09-09T03:20:28;1.70;;;1.60;;
7693;SDS011;3889;48.162;11.510;2022-09-09T03:22:57;3.03;;;1.70;;
7693;SDS011;3889;48.162;11.510;2022-09-09T03:25:26;1.60;;;1.50;;
7693;SDS011;3889;48.162;11.510;2022-09-09T03:27:55;1.85;;;1.63;;
7693;SDS011;3889;48.162;11.510;2022-09-09T03:30:23;3.92;;;1.75;;
7693;SDS011;3889;48.162;11.510;2022-09-09T03:32:53;2.30;;;1.80;;
7693;SDS011;3889;48.162;11.510;2022-09-09T03:35:23;2.50;;;1.60;;
7693;SDS011;3889;48.162;11.510;2022-09-09T03:37:51;1.88;;;1.65;;
7693;SDS011;3889;48.162;11.510;2022-09-09T03:40:19;2.30;;;1.60;;
7693;SDS011;3889;48.162;11.510;2022-09-09T03:42:46;2.17;;;1.60;;
7693;SDS011;3889;48.162;11.510;2022-09-09T03:45:15;1.83;;;1.63;;
7693;SDS011;3889;48.162;11.510;2022-09-09T03:47:43;2.67;;;1.63;;
7693;SDS011;3889;48.162;11.510;2022-09-09T03:50:10;2.40;;;1.70;;
7693;SDS011;3889;48.162;11.510;2022-09-09T03:52:40;2.77;;;1.80;;
7693;SDS011;3889;48.162;11.510;2022-09-09T03:55:08;2.90;;;1.70;;
7693;SDS011;3889;48.162;11.510;2022-09-09T03:57:36;2.55;;;1.83;;
7693;SDS011;3889;48.162;11.510;2022-09-09T04:00:05;3.05;;;1.88;;
7693;SDS011;3889;48.162;11.510;2022-09-09T04:02:35;1.70;;;1.60;;
7693;SDS011;3889;48.162;11.510;2022-09-09T04:05:03;3.80;;;1.95;;
7693;SDS011;3889;48.162;11.510;2022-09-09T04:07:33;2.63;;;1.85;;
7693;SDS011;3889;48.162;11.510;2022-09-09T04:10:02;1.95;;;1.70;;
7693;SDS011;3889;48.162;11.510;2022-09-09T04:12:30;2.20;;;1.70;;
7693;SDS011;3889;48.162;11.510;2022-09-09T04:14:58;4.57;;;2.20;;
7693;SDS011;3889;48.162;11.510;2022-09-09T04:17:26;2.75;;;1.80;;
7693;SDS011;3889;48.162;11.510;2022-09-09T04:19:55;1.80;;;1.50;;
7693;SDS011;3889;48.162;11.510;2022-09-09T04:22:23;2.97;;;1.70;;
7693;SDS011;3889;48.162;11.510;2022-09-09T04:24:50;2.53;;;1.60;;
7693;SDS011;3889;48.162;11.510;2022-09-09T04:27:20;2.88;;;1.58;;
7693;SDS011;3889;48.162;11.510;2022-09-09T04:29:47;1.90;;;1.80;;
7693;SDS011;3889;48.162;11.510;2022-09-09T04:32:15;2.05;;;1.63;;
7693;SDS011;3889;48.162;11.510;2022-09-09T04:34:43;1.77;;;1.63;;
7693;SDS011;3889;48.162;11.510;2022-09-09T04:37:13;3.08;;;1.70;;
7693;SDS011;3889;48.162;11.510;2022-09-09T04:39:41;3.97;;;1.83;;
7693;SDS011;3889;48.162;11.510;2022-09-09T04:42:09;2.80;;;1.70;;
7693;SDS011;3889;48.162;11.510;2022-09-09T04:44:38;4.27;;;1.83;;
7693;SDS011;3889;48.162;11.510;2022-09-09T04:47:06;3.47;;;1.70;;
7693;SDS011;3889;48.162;11.510;2022-09-09T04:49:35;3.92;;;1.85;;
7693;SDS011;3889;48.162;11.510;2022-09-09T04:52:04;2.45;;;1.63;;
7693;SDS011;3889;48.162;11.510;2022-09-09T04:54:32;2.97;;;1.63;;
7693;SDS011;3889;48.162;11.510;2022-09-09T04:56:59;2.10;;;1.70;;
7693;SDS011;3889;48.162;11.510;2022-09-09T04:59:28;2.50;;;1.67;;
7693;SDS011;3889;48.162;11.510;2022-09-09T05:01:57;2.90;;;1.80;;
7693;SDS011;3889;48.162;11.510;2022-09-09T05:04:27;1.73;;;1.37;;
7693;SDS011;3889;48.162;11.510;2022-09-09T05:06:55;2.60;;;1.80;;
7693;SDS011;3889;48.162;11.510;2022-09-09T05:09:23;2.97;;;1.50;;
7693;SDS011;3889;48.162;11.510;2022-09-09T05:11:51;2.20;;;1.50;;
7693;SDS011;3889;48.162;11.510;2022-09-09T05:14:19;3.72;;;1.90;;
7693;SDS011;3889;48.162;11.510;2022-09-09T05:16:46;2.42;;;1.50;;
7693;SDS011;3889;48.162;11.510;2022-09-09T05:19:17;1.90;;;1.70;;
7693;SDS011;3889;48.162;11.510;2022-09-09T05:21:45;2.77;;;1.53;;
7693;SDS011;3889;48.162;11.510;2022-09-09T05:24:13;2.97;;;1.90;;
7693;SDS011;3889;48.162;11.510;2022-09-09T05:26:41;2.60;;;1.80;;
7693;SDS011;3889;48.162;11.510;2022-09-09T05:29:10;2.47;;;1.63;;
7693;SDS011;3889;48.162;11.510;2022-09-09T05:31:38;3.63;;;1.95;;
7693;SDS011;3889;48.162;11.510;2022-09-09T05:34:07;3.92;;;1.60;;
7693;SDS011;3889;48.162;11.510;2022-09-09T05:36:36;3.35;;;1.70;;
7693;SDS011;3889;48.162;11.510;2022-09-09T05:39:04;2.00;;;1.80;;
7693;SDS011;3889;48.162;11.510;2022-09-09T05:41:32;1.83;;;1.63;;
7693;SDS011;3889;48.162;11.510;2022-09-09T05:44:01;3.22;;;1.92;;
7693;SDS011;3889;48.162;11.510;2022-09-09T05:46:29;2.58;;;1.67;;
7693;SDS011;3889;48.162;11.510;2022-09-09T05:48:57;1.85;;;1.70;;
7693;SDS011;3889;48.162;11.510;2022-09-09T05:51:26;2.08;;;1.67;;
7693;SDS011;3889;48.162;11.510;2022-09-09T05:53:57;3.88;;;1.75;;
7693;SDS011;3889;48.162;11.510;2022-09-09T05:56:25;3.25;;;1.80;;
7693;SDS011;3889;48.162;11.510;2022-09-09T05:58:54;3.75;;;1.70;;
7693;SDS011;3889;48.162;11.510;2022-09-09T06:01:24;2.07;;;1.70;;
7693;SDS011;3889;48.162;11.510;2022-09-09T06:03:53;2.50;;;1.60;;
7693;SDS011;3889;48.162;11.510;2022-09-09T06:06:23;2.65;;;1.77;;
7693;SDS011;3889;48.162;11.510;2022-09-09T06:08:53;2.83;;;1.70;;
7693;SDS011;3889;48.162;11.510;2022-09-09T06:11:25;3.53;;;1.60;;
7693;SDS011;3889;48.162;11.510;2022-09-09T06:13:53;4.28;;;1.60;;
7693;SDS011;3889;48.162;11.510;2022-09-09T06:16:22;2.53;;;1.67;;
7693;SDS011;3889;48.162;11.510;2022-09-09T06:18:51;2.55;;;1.80;;
7693;SDS011;3889;48.162;11.510;2022-09-09T06:21:21;3.37;;;1.70;;
7693;SDS011;3889;48.162;11.510;2022-09-09T06:23:49;4.28;;;1.98;;
7693;SDS011;3889;48.162;11.510;2022-09-09T06:26:27;2.00;;;1.73;;
7693;SDS011;3889;48.162;11.510;2022-09-09T06:28:57;3.08;;;1.73;;
7693;SDS011;3889;48.162;11.510;2022-09-09T06:31:26;3.07;;;1.50;;
7693;SDS011;3889;48.162;11.510;2022-09-09T06:33:57;4.10;;;1.77;;
7693;SDS011;3889;48.162;11.510;2022-09-09T06:36:26;2.72;;;1.60;;
7693;SDS011;3889;48.162;11.510;2022-09-09T06:38:55;2.47;;;1.58;;
7693;SDS011;3889;48.162;11.510;2022-09-09T06:41:24;2.58;;;1.42;;
7693;SDS011;3889;48.162;11.510;2022-09-09T06:43:56;3.70;;;1.50;;
7693;SDS011;3889;48.162;11.510;2022-09-09T06:46:36;3.38;;;1.33;;
7693;SDS011;3889;48.162;11.510;2022-09-09T06:49:04;2.25;;;1.25;;
7693;SDS011;3889;48.162;11.510;2022-09-09T06:51:33;1.63;;;1.27;;
7693;SDS011;3889;48.162;11.510;2022-09-09T06:54:02;2.22;;;1.50;;
7693;SDS011;3889;48.162;11.510;2022-09-09T06:56:33;1.40;;;1.30;;
7693;SDS011;3889;48.162;11.510;2022-09-09T06:59:03;1.58;;;1.30;;
7693;SDS011;3889;48.162;11.510;2022-09-09T07:01:33;2.60;;;2.05;;
7693;SDS011;3889;48.162;11.510;2022-09-09T07:04:03;1.60;;;1.30;;
7693;SDS011;3889;48.162;11.510;2022-09-09T07:06:34;1.65;;;1.50;;
7693;SDS011;3889;48.162;11.510;2022-09-09T07:09:04;3.60;;;1.50;;
7693;SDS011;3889;48.162;11.510;2022-09-09T07:11:36;2.53;;;1.63;;
7693;SDS011;3889;48.162;11.510;2022-09-09T07:14:07;1.88;;;1.40;;
7693;SDS011;3889;48.162;11.510;2022-09-09T07:16:38;2.22;;;1.27;;
7693;SDS011;3889;48.162;11.510;2022-09-09T07:19:06;2.13;;;1.20;;
7693;SDS011;3889;48.162;11.510;2022-09-09T07:21:34;3.28;;;1.48;;
7693;SDS011;3889;48.162;11.510;2022-09-09T07:24:02;3.47;;;1.45;;
7693;SDS011;3889;48.162;11.510;2022-09-09T07:26:33;2.30;;;1.57;;
7693;SDS011;3889;48.162;11.510;2022-09-09T07:29:03;2.30;;;1.65;;
7693;SDS011;3889;48.162;11.510;2022-09-09T07:31:32;4.15;;;1.60;;
7693;SDS011;3889;48.162;11.510;2022-09-09T07:34:26;4.93;;;1.90;;
7693;SDS011;3889;48.162;11.510;2022-09-09T07:36:55;3.10;;;1.75;;
7693;SDS011;3889;48.162;11.510;2022-09-09T07:39:23;3.22;;;1.70;;
7693;SDS011;3889;48.162;11.510;2022-09-09T07:41:51;2.00;;;1.42;;
7693;SDS011;3889;48.162;11.510;2022-09-09T07:44:22;3.50;;;1.80;;
7693;SDS011;3889;48.162;11.510;2022-09-09T07:46:52;3.60;;;1.85;;
7693;SDS011;3889;48.162;11.510;2022-09-09T07:49:20;4.07;;;1.65;;
7693;SDS011;3889;48.162;11.510;2022-09-09T07:51:56;3.40;;;1.60;;
7693;SDS011;3889;48.162;11.510;2022-09-09T07:54:24;2.67;;;1.65;;
7693;SDS011;3889;48.162;11.510;2022-09-09T07:56:52;2.10;;;1.50;;
7693;SDS011;3889;48.162;11.510;2022-09-09T07:59:21;1.55;;;1.20;;
7693;SDS011;3889;48.162;11.510;2022-09-09T08:01:50;3.00;;;1.55;;
7693;SDS011;3889;48.162;11.510;2022-09-09T08:04:20;2.22;;;1.42;;
7693;SDS011;3889;48.162;11.510;2022-09-09T08:06:50;3.30;;;1.50;;
7693;SDS011;3889;48.162;11.510;2022-09-09T08:09:19;2.45;;;1.65;;
7693;SDS011;3889;48.162;11.510;2022-09-09T08:11:51;3.17;;;1.73;;
7693;SDS011;3889;48.162;11.510;2022-09-09T08:14:18;3.22;;;1.70;;
7693;SDS011;3889;48.162;11.510;2022-09-09T08:16:48;2.90;;;1.70;;
7693;SDS011;3889;48.162;11.510;2022-09-09T08:19:16;2.97;;;1.67;;
7693;SDS011;3889;48.162;11.510;2022-09-09T08:21:44;2.67;;;1.80;;
7693;SDS011;3889;48.162;11.510;2022-09-09T08:24:12;2.22;;;1.63;;
7693;SDS011;3889;48.162;11.510;2022-09-09T08:26:41;2.88;;;1.77;;
7693;SDS011;3889;48.162;11.510;2022-09-09T08:29:12;3.88;;;2.13;;
7693;SDS011;3889;48.162;11.510;2022-09-09T08:31:43;3.35;;;2.00;;
7693;SDS011;3889;48.162;11.510;2022-09-09T08:34:18;3.92;;;1.70;;
7693;SDS011;3889;48.162;11.510;2022-09-09T08:36:50;3.60;;;2.10;;
7693;SDS011;3889;48.162;11.510;2022-09-09T08:39:23;2.85;;;2.10;;
7693;SDS011;3889;48.162;11.510;2022-09-09T08:41:59;4.28;;;2.30;;
7693;SDS011;3889;48.162;11.510;2022-09-09T08:44:55;3.42;;;2.03;;
7693;SDS011;3889;48.162;11.510;2022-09-09T08:47:34;3.67;;;2.40;;
7693;SDS011;3889;48.162;11.510;2022-09-09T08:50:18;4.40;;;2.40;;
7693;SDS011;3889;48.162;11.510;2022-09-09T08:52:55;3.87;;;2.50;;
7693;SDS011;3889;48.162;11.510;2022-09-09T08:55:29;2.90;;;2.50;;
7693;SDS011;3889;48.162;11.510;2022-09-09T08:58:06;5.30;;;2.35;;
7693;SDS011;3889;48.162;11.510;2022-09-09T09:00:40;5.90;;;2.60;;
7693;SDS011;3889;48.162;11.510;2022-09-09T09:03:19;4.82;;;2.60;;
7693;SDS011;3889;48.162;11.510;2022-09-09T09:05:59;4.47;;;2.63;;
7693;SDS011;3889;48.162;11.510;2022-09-09T09:08:35;3.95;;;2.50;;
7693;SDS011;3889;48.162;11.510;2022-09-09T09:11:11;5.60;;;2.50;;
7693;SDS011;3889;48.162;11.510;2022-09-09T09:13:39;4.50;;;2.60;;
7693;SDS011;3889;48.162;11.510;2022-09-09T09:16:13;3.63;;;2.33;;
7693;SDS011;3889;48.162;11.510;2022-09-09T09:18:49;2.67;;;2.13;;
7693;SDS011;3889;48.162;11.510;2022-09-09T09:21:20;4.88;;;2.30;;
7693;SDS011;3889;48.162;11.510;2022-09-09T09:23:57;2.40;;;1.67;;
7693;SDS011;3889;48.162;11.510;2022-09-09T09:26:29;2.00;;;1.50;;
7693;SDS011;3889;48.162;11.510;2022-09-09T09:28:59;3.03;;;1.60;;
7693;SDS011;3889;48.162;11.510;2022-09-09T09:31:35;2.53;;;1.52;;
7693;SDS011;3889;48.162;11.510;2022-09-09T09:34:03;3.20;;;1.50;;
7693;SDS011;3889;48.162;11.510;2022-09-09T09:36:38;2.70;;;1.55;;
7693;SDS011;3889;48.162;11.510;2022-09-09T09:39:08;2.65;;;1.55;;
7693;SDS011;3889;48.162;11.510;2022-09-09T09:41:56;1.98;;;1.13;;
7693;SDS011;3889;48.162;11.510;2022-09-09T09:44:32;2.53;;;1.30;;
7693;SDS011;3889;48.162;11.510;2022-09-09T09:47:06;2.05;;;1.23;;
7693;SDS011;3889;48.162;11.510;2022-09-09T09:49:35;2.22;;;1.50;;
7693;SDS011;3889;48.162;11.510;2022-09-09T09:52:05;3.42;;;1.27;;
7693;SDS011;3889;48.162;11.510;2022-09-09T09:54:37;1.98;;;1.25;;
7693;SDS011;3889;48.162;11.510;2022-09-09T09:57:08;2.15;;;1.20;;
7693;SDS011;3889;48.162;11.510;2022-09-09T09:59:38;2.85;;;1.23;;
7693;SDS011;3889;48.162;11.510;2022-09-09T10:02:17;2.22;;;1.20;;
7693;SDS011;3889;48.162;11.510;2022-09-09T10:05:00;2.75;;;1.27;;
7693;SDS011;3889;48.162;11.510;2022-09-09T10:07:31;3.58;;;1.40;;
7693;SDS011;3889;48.162;11.510;2022-09-09T10:09:59;4.33;;;1.60;;
7693;SDS011;3889;48.162;11.510;2022-09-09T10:12:30;2.50;;;1.50;;
7693;SDS011;3889;48.162;11.510;2022-09-09T10:15:16;2.10;;;1.50;;
7693;SDS011;3889;48.162;11.510;2022-09-09T10:18:03;3.38;;;1.60;;
7693;SDS011;3889;48.162;11.510;2022-09-09T10:20:43;2.70;;;1.50;;
7693;SDS011;3889;48.162;11.510;2022-09-09T10:23:21;3.70;;;1.60;;
7693;SDS011;3889;48.162;11.510;2022-09-09T10:26:08;2.03;;;1.40;;
7693;SDS011;3889;48.162;11.510;2022-09-09T10:28:51;3.10;;;1.45;;
7693;SDS011;3889;48.162;11.510;2022-09-09T10:31:30;3.80;;;1.70;;
7693;SDS011;3889;48.162;11.510;2022-09-09T10:34:12;2.53;;;1.67;;
7693;SDS011;3889;48.162;11.510;2022-09-09T10:36:49;2.80;;;1.52;;
7693;SDS011;3889;48.162;11.510;2022-09-09T10:39:22;3.55;;;1.58;;
7693;SDS011;3889;48.162;11.510;2022-09-09T10:42:08;3.65;;;1.30;;
7693;SDS011;3889;48.162;11.510;2022-09-09T10:44:42;3.30;;;1.58;;
7693;SDS011;3889;48.162;11.510;2022-09-09T10:47:25;2.65;;;1.40;;
7693;SDS011;3889;48.162;11.510;2022-09-09T10:50:20;4.78;;;1.88;;
7693;SDS011;3889;48.162;11.510;2022-09-09T10:53:30;13.23;;;3.22;;
7693;SDS011;3889;48.162;11.510;2022-09-09T10:56:07;19.05;;;3.65;;
7693;SDS011;3889;48.162;11.510;2022-09-09T10:58:38;9.05;;;2.28;;
7693;SDS011;3889;48.162;11.510;2022-09-09T11:01:10;2.92;;;1.20;;
7693;SDS011;3889;48.162;11.510;2022-09-09T11:03:43;2.55;;;1.40;;
7693;SDS011;3889;48.162;11.510;2022-09-09T11:06:14;2.67;;;1.35;;
7693;SDS011;3889;48.162;11.510;2022-09-09T11:08:46;2.08;;;1.10;;
7693;SDS011;3889;48.162;11.510;2022-09-09T11:11:21;3.20;;;1.30;;
7693;SDS011;3889;48.162;11.510;2022-09-09T11:13:55;3.15;;;1.27;;
7693;SDS011;3889;48.162;11.510;2022-09-09T11:16:32;1.73;;;1.20;;
7693;SDS011;3889;48.162;11.510;2022-09-09T11:19:04;2.22;;;1.08;;
7693;SDS011;3889;48.162;11.510;2022-09-09T11:21:43;1.75;;;1.10;;
7693;SDS011;3889;48.162;11.510;2022-09-09T11:24:15;2.03;;;1.00;;
7693;SDS011;3889;48.162;11.510;2022-09-09T11:26:51;1.80;;;1.17;;
7693;SDS011;3889;48.162;11.510;2022-09-09T11:32:28;2.10;;;1.10;;
7693;SDS011;3889;48.162;11.510;2022-09-09T11:35:20;2.83;;;1.00;;
7693;SDS011;3889;48.162;11.510;2022-09-09T11:38:05;1.58;;;0.88;;
7693;SDS011;3889;48.162;11.510;2022-09-09T11:40:58;2.50;;;0.95;;
7693;SDS011;3889;48.162;11.510;2022-09-09T11:43:31;2.10;;;1.00;;
7693;SDS011;3889;48.162;11.510;2022-09-09T11:46:01;2.30;;;0.90;;
7693;SDS011;3889;48.162;11.510;2022-09-09T11:48:32;2.03;;;0.82;;
7693;SDS011;3889;48.162;11.510;2022-09-09T11:51:03;1.20;;;0.80;;
7693;SDS011;3889;48.162;11.510;2022-09-09T11:53:46;1.33;;;0.98;;
7693;SDS011;3889;48.162;11.510;2022-09-09T11:56:23;1.40;;;1.10;;
7693;SDS011;3889;48.162;11.510;2022-09-09T11:58:55;1.70;;;1.00;;
7693;SDS011;3889;48.162;11.510;2022-09-09T12:01:26;1.95;;;0.90;;
7693;SDS011;3889;48.162;11.510;2022-09-09T12:04:06;1.65;;;0.98;;
7693;SDS011;3889;48.162;11.510;2022-09-09T12:06:48;2.20;;;0.95;;
7693;SDS011;3889;48.162;11.510;2022-09-09T12:09:23;2.17;;;1.03;;
7693;SDS011;3889;48.162;11.510;2022-09-09T12:12:04;1.08;;;0.90;;
7693;SDS011;3889;48.162;11.510;2022-09-09T12:14:38;1.65;;;1.05;;
7693;SDS011;3889;48.162;11.510;2022-09-09T12:17:17;1.67;;;0.93;;
7693;SDS011;3889;48.162;11.510;2022-09-09T12:19:46;2.30;;;0.93;;
7693;SDS011;3889;48.162;11.510;2022-09-09T12:22:17;1.42;;;0.98;;
7693;SDS011;3889;48.162;11.510;2022-09-09T12:24:52;1.08;;;0.82;;
7693;SDS011;3889;48.162;11.510;2022-09-09T12:27:26;2.15;;;0.90;;
7693;SDS011;3889;48.162;11.510;2022-09-09T12:30:01;1.27;;;0.90;;
7693;SDS011;3889;48.162;11.510;2022-09-09T12:32:31;1.50;;;1.00;;
7693;SDS011;3889;48.162;11.510;2022-09-09T12:34:59;2.35;;;1.15;;
7693;SDS011;3889;48.162;11.510;2022-09-09T12:37:32;2.10;;;0.90;;
7693;SDS011;3889;48.162;11.510;2022-09-09T12:40:03;1.83;;;0.80;;
7693;SDS011;3889;48.162;11.510;2022-09-09T12:42:33;2.00;;;1.03;;
7693;SDS011;3889;48.162;11.510;2022-09-09T12:45:16;0.98;;;0.80;;
7693;SDS011;3889;48.162;11.510;2022-09-09T12:47:46;2.47;;;1.00;;
7693;SDS011;3889;48.162;11.510;2022-09-09T12:50:19;1.67;;;1.20;;
7693;SDS011;3889;48.162;11.510;2022-09-09T12:52:49;2.22;;;1.27;;
7693;SDS011;3889;48.162;11.510;2022-09-09T12:55:20;1.90;;;1.40;;
7693;SDS011;3889;48.162;11.510;2022-09-09T12:57:51;2.90;;;1.40;;
7693;SDS011;3889;48.162;11.510;2022-09-09T13:00:22;1.70;;;1.00;;
7693;SDS011;3889;48.162;11.510;2022-09-09T13:02:51;1.50;;;0.90;;
7693;SDS011;3889;48.162;11.510;2022-09-09T13:05:22;0.80;;;0.80;;
7693;SDS011;3889;48.162;11.510;2022-09-09T13:08:00;1.55;;;0.93;;
7693;SDS011;3889;48.162;11.510;2022-09-09T13:10:30;1.30;;;0.80;;
7693;SDS011;3889;48.162;11.510;2022-09-09T13:13:18;1.92;;;1.17;;
7693;SDS011;3889;48.162;11.510;2022-09-09T13:15:49;1.42;;;1.10;;
7693;SDS011;3889;48.162;11.510;2022-09-09T13:18:21;1.50;;;1.00;;
7693;SDS011;3889;48.162;11.510;2022-09-09T13:20:50;3.05;;;1.00;;
7693;SDS011;3889;48.162;11.510;2022-09-09T13:23:19;1.85;;;1.00;;
7693;SDS011;3889;48.162;11.510;2022-09-09T13:25:54;1.97;;;0.90;;
7693;SDS011;3889;48.162;11.510;2022-09-09T13:28:24;1.77;;;0.80;;
7693;SDS011;3889;48.162;11.510;2022-09-09T13:31:00;1.17;;;0.90;;
7693;SDS011;3889;48.162;11.510;2022-09-09T13:33:30;2.50;;;1.00;;
7693;SDS011;3889;48.162;11.510;2022-09-09T13:36:01;2.72;;;0.98;;
7693;SDS011;3889;48.162;11.510;2022-09-09T13:38:32;2.03;;;1.00;;
7693;SDS011;3889;48.162;11.510;2022-09-09T13:41:03;3.58;;;1.10;;
7693;SDS011;3889;48.162;11.510;2022-09-09T13:43:34;2.25;;;1.15;;
7693;SDS011;3889;48.162;11.510;2022-09-09T13:46:21;2.45;;;0.85;;
7693;SDS011;3889;48.162;11.510;2022-09-09T13:48:57;1.75;;;0.98;;
7693;SDS011;3889;48.162;11.510;2022-09-09T13:51:29;3.50;;;0.85;;
7693;SDS011;3889;48.162;11.510;2022-09-09T13:54:03;1.42;;;0.75;;
7693;SDS011;3889;48.162;11.510;2022-09-09T13:56:32;1.40;;;0.80;;
7693;SDS011;3889;48.162;11.510;2022-09-09T13:59:01;2.53;;;0.90;;
7693;SDS011;3889;48.162;11.510;2022-09-09T14:01:31;1.92;;;0.90;;
7693;SDS011;3889;48.162;11.510;2022-09-09T14:04:01;1.98;;;0.90;;
7693;SDS011;3889;48.162;11.510;2022-09-09T14:06:29;2.95;;;0.80;;
7693;SDS011;3889;48.162;11.510;2022-09-09T14:08:58;2.08;;;1.00;;
7693;SDS011;3889;48.162;11.510;2022-09-09T14:11:26;1.63;;;1.10;;
7693;SDS011;3889;48.162;11.510;2022-09-09T14:13:53;1.10;;;0.93;;
7693;SDS011;3889;48.162;11.510;2022-09-09T14:16:22;4.13;;;0.93;;
7693;SDS011;3889;48.162;11.510;2022-09-09T14:18:51;3.03;;;1.00;;
7693;SDS011;3889;48.162;11.510;2022-09-09T14:21:18;1.92;;;1.10;;
7693;SDS011;3889;48.162;11.510;2022-09-09T14:23:46;2.33;;;1.00;;
7693;SDS011;3889;48.162;11.510;2022-09-09T14:26:14;1.20;;;0.80;;
7693;SDS011;3889;48.162;11.510;2022-09-09T14:28:44;1.30;;;1.05;;
7693;SDS011;3889;48.162;11.510;2022-09-09T14:31:21;1.65;;;0.95;;
7693;SDS011;3889;48.162;11.510;2022-09-09T14:33:51;1.45;;;0.85;;
7693;SDS011;3889;48.162;11.510;2022-09-09T14:36:19;1.65;;;1.10;;
7693;SDS011;3889;48.162;11.510;2022-09-09T14:38:47;4.30;;;1.00;;
7693;SDS011;3889;48.162;11.510;2022-09-09T14:41:15;2.13;;;0.90;;
7693;SDS011;3889;48.162;11.510;2022-09-09T14:43:45;3.43;;;1.10;;
7693;SDS011;3889;48.162;11.510;2022-09-09T14:46:13;1.58;;;0.93;;
7693;SDS011;3889;48.162;11.510;2022-09-09T14:48:43;1.00;;;0.90;;
7693;SDS011;3889;48.162;11.510;2022-09-09T14:51:13;1.30;;;0.80;;
7693;SDS011;3889;48.162;11.510;2022-09-09T14:53:43;2.30;;;1.00;;
7693;SDS011;3889;48.162;11.510;2022-09-09T14:56:12;2.78;;;1.00;;
7693;SDS011;3889;48.162;11.510;2022-09-09T14:58:41;2.90;;;1.20;;
7693;SDS011;3889;48.162;11.510;2022-09-09T15:01:10;2.27;;;1.13;;
7693;SDS011;3889;48.162;11.510;2022-09-09T15:03:39;2.33;;;0.90;;
7693;SDS011;3889;48.162;11.510;2022-09-09T15:06:09;2.30;;;1.00;;
7693;SDS011;3889;48.162;11.510;2022-09-09T15:08:40;2.20;;;1.00;;
7693;SDS011;3889;48.162;11.510;2022-09-09T15:11:10;2.38;;;1.00;;
7693;SDS011;3889;48.162;11.510;2022-09-09T15:13:40;2.72;;;0.90;;
7693;SDS011;3889;48.162;11.510;2022-09-09T15:16:09;1.53;;;0.90;;
7693;SDS011;3889;48.162;11.510;2022-09-09T15:18:38;2.00;;;1.00;;
7693;SDS011;3889;48.162;11.510;2022-09-09T15:21:09;2.87;;;1.17;;
7693;SDS011;3889;48.162;11.510;2022-09-09T15:23:37;1.10;;;0.90;;
7693;SDS011;3889;48.162;11.510;2022-09-09T15:26:07;2.40;;;1.00;;
7693;SDS011;3889;48.162;11.510;2022-09-09T15:28:36;1.52;;;0.90;;
7693;SDS011;3889;48.162;11.510;2022-09-09T15:31:05;2.10;;;1.00;;
7693;SDS011;3889;48.162;11.510;2022-09-09T15:33:34;3.10;;;1.20;;
7693;SDS011;3889;48.162;11.510;2022-09-09T15:36:12;2.30;;;0.90;;